createdAt,value
2023-11-18T00:01:47.182Z,93.07
2023-11-18T00:04:17.400Z,93.11
2023-11-18T00:06:48.452Z,92.80
2023-11-18T00:09:16.051Z,92.89
2023-11-18T00:11:45.851Z,93.07
2023-11-18T00:14:12.974Z,92.99
2023-11-18T00:16:40.391Z,93.05
2023-11-18T00:19:07.480Z,93.23
2023-11-18T00:21:34.411Z,93.08
2023-11-18T00:24:01.270Z,93.01
2023-11-18T00:26:28.178Z,93.14
2023-11-18T00:29:00.791Z,93.05
2023-11-18T00:31:28.961Z,92.86
2023-11-18T00:33:55.989Z,93.08
2023-11-18T00:36:22.937Z,92.93
2023-11-18T00:38:50.568Z,92.94
2023-11-18T00:41:18.919Z,93.12
2023-11-18T00:43:46.032Z,93.04
2023-11-18T00:46:12.961Z,93.17
2023-11-18T00:48:40.099Z,93.12
2023-11-18T00:51:10.100Z,93.05
2023-11-18T00:53:36.990Z,93.27
2023-11-18T00:56:09.383Z,93.17
2023-11-18T00:58:40.544Z,93.12
2023-11-18T01:01:08.136Z,93.17
2023-11-18T01:03:35.647Z,92.99
2023-11-18T01:06:02.570Z,92.98
2023-11-18T01:08:29.451Z,92.99
2023-11-18T01:10:56.254Z,93.16
2023-11-18T01:13:23.272Z,93.06
2023-11-18T01:15:50.893Z,93.04
2023-11-18T01:18:19.206Z,93.25
2023-11-18T01:20:46.177Z,93.17
2023-11-18T01:23:13.146Z,92.88
2023-11-18T01:25:41.456Z,93.08
2023-11-18T01:28:08.692Z,93.16
2023-11-18T01:30:35.462Z,93.28
2023-11-18T01:33:02.461Z,93.19
2023-11-18T01:35:29.820Z,93.28
2023-11-18T01:37:56.725Z,93.23
2023-11-18T01:40:23.912Z,93.07
2023-11-18T01:42:50.930Z,93.17
2023-11-18T01:45:18.115Z,93.20
2023-11-18T01:47:46.895Z,93.26
2023-11-18T01:50:15.957Z,93.33
2023-11-18T01:52:46.633Z,93.38
2023-11-18T01:55:14.717Z,93.14
2023-11-18T01:57:45.522Z,93.11
2023-11-18T02:00:15.799Z,92.91
2023-11-18T02:02:45.196Z,92.88
2023-11-18T02:05:14.332Z,92.97
2023-11-18T02:07:41.668Z,93.18
2023-11-18T02:10:10.692Z,93.17
2023-11-18T02:12:45.921Z,92.91
2023-11-18T02:15:14.408Z,93.28
2023-11-18T02:17:44.173Z,92.92
2023-11-18T02:20:17.618Z,92.90
2023-11-18T02:22:45.138Z,93.01
2023-11-18T02:25:16.983Z,93.18
2023-11-18T02:27:44.417Z,93.08
2023-11-18T02:30:15.786Z,93.05
2023-11-18T02:33:06.877Z,92.92
2023-11-18T02:35:38.686Z,93.04
2023-11-18T02:38:11.868Z,93.33
2023-11-18T02:40:45.327Z,92.94
2023-11-18T02:43:12.631Z,92.83
2023-11-18T02:45:39.892Z,93.20
2023-11-18T02:48:08.180Z,93.03
2023-11-18T02:50:39.575Z,92.87
2023-11-18T02:53:06.910Z,93.04
2023-11-18T02:55:33.983Z,92.50
2023-11-18T02:58:06.621Z,92.57
2023-11-18T03:00:37.152Z,93.04
2023-11-18T03:03:04.758Z,92.76
2023-11-18T03:05:32.288Z,92.69
2023-11-18T03:07:59.860Z,92.72
2023-11-18T03:10:27.613Z,92.88
2023-11-18T03:12:55.363Z,92.76
2023-11-18T03:15:24.173Z,92.85
2023-11-18T03:17:52.505Z,92.73
2023-11-18T03:20:21.301Z,92.54
2023-11-18T03:22:48.791Z,92.76
2023-11-18T03:25:16.100Z,92.50
2023-11-18T03:27:43.452Z,92.49
2023-11-18T03:30:10.899Z,92.84
2023-11-18T03:32:39.815Z,92.58
2023-11-18T03:35:11.366Z,92.41
2023-11-18T03:37:43.268Z,92.73
2023-11-18T03:40:13.277Z,92.51
2023-11-18T03:42:41.319Z,92.58
2023-11-18T03:45:13.161Z,92.48
2023-11-18T03:47:40.324Z,92.50
2023-11-18T03:50:10.337Z,92.58
2023-11-18T03:52:39.477Z,92.65
2023-11-18T03:55:07.198Z,92.67
2023-11-18T03:57:34.137Z,92.38
2023-11-18T04:00:01.436Z,92.48
2023-11-18T04:02:28.531Z,92.46
2023-11-18T04:04:55.605Z,92.59
2023-11-18T04:07:23.138Z,92.34
2023-11-18T04:09:50.011Z,92.33
2023-11-18T04:12:17.727Z,92.33
2023-11-18T04:14:44.685Z,92.30
2023-11-18T04:17:11.721Z,92.35
2023-11-18T04:19:40.446Z,92.06
2023-11-18T04:22:07.365Z,92.21
2023-11-18T04:24:36.456Z,91.75
2023-11-18T04:27:04.003Z,92.23
2023-11-18T04:29:31.477Z,91.97
2023-11-18T04:31:58.581Z,92.15
2023-11-18T04:34:26.326Z,92.21
2023-11-18T04:36:53.435Z,91.97
2023-11-18T04:39:21.954Z,92.09
2023-11-18T04:41:48.868Z,92.00
2023-11-18T04:44:17.884Z,92.02
2023-11-18T04:46:46.089Z,92.09
2023-11-18T04:49:13.328Z,91.95
2023-11-18T04:51:40.310Z,91.88
2023-11-18T04:54:09.326Z,91.99
2023-11-18T04:56:39.469Z,91.53
2023-11-18T04:59:08.001Z,91.94
2023-11-18T05:01:35.009Z,91.90
2023-11-18T05:04:02.094Z,91.86
2023-11-18T05:06:29.051Z,91.62
2023-11-18T05:08:58.629Z,91.78
2023-11-18T05:11:25.516Z,91.54
2023-11-18T05:13:52.455Z,91.69
2023-11-18T05:16:19.434Z,91.41
2023-11-18T05:18:46.391Z,91.49
2023-11-18T05:21:13.322Z,91.50
2023-11-18T05:23:40.436Z,91.60
2023-11-18T05:26:07.869Z,91.66
2023-11-18T05:28:35.425Z,91.63
2023-11-18T05:31:06.859Z,91.55
2023-11-18T05:33:35.829Z,91.42
2023-11-18T05:36:06.674Z,91.30
2023-11-18T05:38:36.588Z,91.16
2023-11-18T05:41:08.082Z,91.06
2023-11-18T05:43:41.447Z,91.44
2023-11-18T05:46:25.848Z,91.19
2023-11-18T05:48:57.224Z,91.29
2023-11-18T05:51:25.912Z,91.11
2023-11-18T05:53:53.817Z,91.31
2023-11-18T05:56:24.499Z,91.27
2023-11-18T05:58:55.152Z,91.05
2023-11-18T06:01:22.785Z,91.03
2023-11-18T06:03:50.287Z,91.22
2023-11-18T06:06:21.396Z,91.06
2023-11-18T06:08:55.080Z,91.31
2023-11-18T06:11:22.403Z,91.19
2023-11-18T06:13:52.099Z,91.08
2023-11-18T06:16:23.470Z,91.14
2023-11-18T06:18:54.601Z,90.99
2023-11-18T06:21:28.418Z,91.24
2023-11-18T06:23:56.698Z,91.08
2023-11-18T06:26:24.599Z,90.82
2023-11-18T06:28:51.564Z,90.77
2023-11-18T06:31:18.799Z,90.70
2023-11-18T06:33:50.564Z,90.40
2023-11-18T06:36:28.106Z,90.40
2023-11-18T06:38:55.407Z,90.23
2023-11-18T06:41:34.886Z,90.47
2023-11-18T06:44:10.269Z,89.99
2023-11-18T06:46:38.193Z,90.22
2023-11-18T06:49:05.907Z,89.87
2023-11-18T06:51:37.944Z,90.17
2023-11-18T06:54:12.972Z,89.74
2023-11-18T06:56:46.300Z,90.18
2023-11-18T06:59:15.136Z,89.93
2023-11-18T07:01:47.087Z,90.31
2023-11-18T07:04:16.483Z,90.41
2023-11-18T07:06:45.159Z,90.17
2023-11-18T07:09:19.810Z,90.57
2023-11-18T07:11:48.478Z,90.58
2023-11-18T07:14:19.088Z,90.50
2023-11-18T07:16:46.723Z,90.75
2023-11-18T07:19:22.203Z,90.83
2023-11-18T07:21:50.845Z,90.76
2023-11-18T07:24:18.765Z,90.84
2023-11-18T07:26:46.764Z,91.02
2023-11-18T07:29:18.623Z,91.11
2023-11-18T07:31:47.139Z,90.87
2023-11-18T07:34:16.452Z,91.04
2023-11-18T07:36:47.483Z,91.19
2023-11-18T07:39:19.428Z,91.03
2023-11-18T07:41:49.147Z,91.24
2023-11-18T07:44:18.949Z,91.12
2023-11-18T07:46:46.189Z,91.12
2023-11-18T07:49:18.186Z,91.34
2023-11-18T07:51:45.577Z,91.52
2023-11-18T07:54:16.600Z,91.34
2023-11-18T07:56:44.408Z,91.46
2023-11-18T07:59:11.615Z,91.24
2023-11-18T08:01:42.444Z,91.53
2023-11-18T08:04:09.467Z,91.39
2023-11-18T08:06:38.440Z,91.47
2023-11-18T08:09:08.012Z,91.45
2023-11-18T08:11:35.290Z,91.49
2023-11-18T08:14:04.349Z,91.59
2023-11-18T08:16:31.816Z,91.17
2023-11-18T08:18:59.333Z,91.32
2023-11-18T08:21:26.186Z,91.42
2023-11-18T08:23:54.181Z,91.20
2023-11-18T08:26:21.590Z,91.47
2023-11-18T08:28:48.621Z,91.35
2023-11-18T08:31:19.883Z,91.44
2023-11-18T08:33:47.902Z,91.17
2023-11-18T08:36:14.892Z,91.45
2023-11-18T08:38:45.691Z,91.03
2023-11-18T08:41:13.745Z,91.01
2023-11-18T08:43:48.330Z,91.09
2023-11-18T08:46:15.627Z,90.94
2023-11-18T08:48:42.515Z,90.82
2023-11-18T08:51:11.613Z,90.78
2023-11-18T08:53:46.140Z,90.49
2023-11-18T08:56:15.573Z,90.62
2023-11-18T08:58:46.794Z,90.76
2023-11-18T09:01:17.067Z,90.46
2023-11-18T09:03:45.115Z,90.47
2023-11-18T09:06:27.446Z,90.12
2023-11-18T09:08:57.783Z,90.05
2023-11-18T09:11:28.674Z,90.12
2023-11-18T09:13:58.873Z,89.74
2023-11-18T09:16:34.646Z,89.66
2023-11-18T09:19:04.460Z,89.46
2023-11-18T09:21:36.890Z,89.31
2023-11-18T09:24:06.881Z,88.89
2023-11-18T09:26:35.397Z,88.68
2023-11-18T09:29:03.772Z,88.32
2023-11-18T09:31:33.059Z,87.72
2023-11-18T09:34:00.043Z,87.68
2023-11-18T09:36:31.666Z,87.11
2023-11-18T09:38:58.641Z,86.92
2023-11-18T09:41:32.546Z,87.02
2023-11-18T09:44:04.019Z,86.63
2023-11-18T09:46:34.725Z,86.20
2023-11-18T09:49:18.800Z,85.74
2023-11-18T09:51:50.298Z,85.57
2023-11-18T09:55:00.159Z,85.48
2023-11-18T09:57:42.602Z,85.24
2023-11-18T10:00:22.080Z,84.75
2023-11-18T10:02:53.315Z,84.61
2023-11-18T10:05:28.709Z,84.00
2023-11-18T10:07:56.023Z,83.96
2023-11-18T10:10:23.448Z,83.81
2023-11-18T10:13:02.197Z,83.28
2023-11-18T10:15:29.633Z,83.20
2023-11-18T10:17:58.853Z,82.78
2023-11-18T10:20:43.292Z,82.55
2023-11-18T10:23:14.204Z,82.45
2023-11-18T10:25:51.477Z,82.06
2023-11-18T10:28:35.410Z,82.20
2023-11-18T10:31:07.077Z,81.99
2023-11-18T10:33:45.591Z,81.94
2023-11-18T10:36:24.564Z,81.42
2023-11-18T10:38:53.113Z,81.17
2023-11-18T10:41:20.762Z,80.88
2023-11-18T10:43:51.758Z,80.32
2023-11-18T10:46:18.730Z,80.29
2023-11-18T10:48:49.777Z,80.43
2023-11-18T10:51:21.128Z,80.03
2023-11-18T10:54:00.287Z,79.97
2023-11-18T10:56:30.457Z,79.67
2023-11-18T10:59:01.074Z,79.51
2023-11-18T11:01:44.368Z,78.92
2023-11-18T11:04:18.456Z,79.09
2023-11-18T11:06:58.709Z,78.20
2023-11-18T11:09:29.360Z,77.54
2023-11-18T11:12:07.488Z,76.89
2023-11-18T11:14:38.489Z,76.05
2023-11-18T11:17:12.758Z,76.26
2023-11-18T11:19:56.968Z,75.84
2023-11-18T11:22:33.479Z,75.44
2023-11-18T11:25:24.040Z,75.38
2023-11-18T11:28:03.603Z,74.94
2023-11-18T11:30:41.408Z,74.44
2023-11-18T11:33:18.699Z,74.19
2023-11-18T11:35:50.333Z,74.36
2023-11-18T11:38:20.291Z,74.09
2023-11-18T11:40:52.078Z,74.02
2023-11-18T11:43:22.922Z,73.89
2023-11-18T11:45:53.409Z,73.96
2023-11-18T11:48:27.898Z,74.04
2023-11-18T11:51:03.128Z,74.43
2023-11-18T11:53:34.252Z,74.37
2023-11-18T11:56:15.562Z,74.46
2023-11-18T11:58:48.542Z,74.65
2023-11-18T12:01:39.041Z,74.50
2023-11-18T12:04:12.095Z,74.79
2023-11-18T12:06:45.669Z,74.55
2023-11-18T12:09:14.015Z,74.59
2023-11-18T12:11:43.593Z,74.55
2023-11-18T12:14:32.510Z,73.88
2023-11-18T12:17:10.379Z,74.17
2023-11-18T12:19:48.691Z,73.77
2023-11-18T12:22:25.834Z,74.16
2023-11-18T12:25:07.888Z,74.17
2023-11-18T12:27:40.901Z,74.09
2023-11-18T12:30:17.074Z,74.64
2023-11-18T12:33:10.145Z,74.87
2023-11-18T12:35:52.672Z,74.65
2023-11-18T12:38:47.550Z,75.09
2023-11-18T12:41:38.860Z,75.45
2023-11-18T12:44:26.357Z,75.53
2023-11-18T12:47:11.201Z,75.95
2023-11-18T12:49:42.419Z,76.29
2023-11-18T12:52:11.368Z,76.72
2023-11-18T12:54:39.200Z,76.65
2023-11-18T12:57:08.366Z,77.00
2023-11-18T12:59:35.936Z,77.26
2023-11-18T13:02:21.379Z,77.14
2023-11-18T13:04:48.925Z,77.04
2023-11-18T13:07:19.972Z,77.14
2023-11-18T13:09:47.381Z,77.11
2023-11-18T13:12:25.166Z,76.65
2023-11-18T13:14:53.025Z,77.17
2023-11-18T13:17:20.045Z,77.03
2023-11-18T13:19:49.109Z,77.08
2023-11-18T13:22:16.370Z,77.07
2023-11-18T13:24:46.804Z,77.00
2023-11-18T13:27:15.370Z,76.94
2023-11-18T13:29:46.834Z,77.30
2023-11-18T13:32:14.103Z,77.30
2023-11-18T13:34:43.678Z,77.58
2023-11-18T13:37:16.707Z,77.51
2023-11-18T13:39:48.578Z,77.85
2023-11-18T13:42:29.473Z,77.73
2023-11-18T13:45:19.265Z,77.82
2023-11-18T13:47:54.137Z,77.50
2023-11-18T13:50:21.175Z,77.79
2023-11-18T13:52:49.522Z,77.81
2023-11-18T13:55:33.311Z,77.76
2023-11-18T13:58:00.465Z,77.62
2023-11-18T14:00:32.621Z,77.81
2023-11-18T14:03:01.264Z,77.91
2023-11-18T14:05:28.580Z,77.82
2023-11-18T14:08:11.297Z,77.75
2023-11-18T14:10:42.715Z,78.02
2023-11-18T14:13:14.635Z,78.05
2023-11-18T14:15:44.044Z,78.01
2023-11-18T14:18:13.443Z,78.17
2023-11-18T14:20:40.663Z,78.16
2023-11-18T14:23:07.636Z,78.44
2023-11-18T14:25:37.761Z,78.66
2023-11-18T14:28:05.257Z,78.58
2023-11-18T14:30:32.245Z,78.24
2023-11-18T14:32:59.165Z,78.28
2023-11-18T14:35:28.533Z,78.60
2023-11-18T14:37:57.666Z,78.19
2023-11-18T14:40:29.346Z,78.06
2023-11-18T14:42:57.122Z,78.28
2023-11-18T14:45:26.253Z,78.25
2023-11-18T14:47:57.722Z,78.26
2023-11-18T14:50:27.128Z,78.21
2023-11-18T14:53:00.235Z,78.43
2023-11-18T14:55:31.232Z,78.68
2023-11-18T14:57:58.406Z,78.54
2023-11-18T15:00:28.634Z,78.31
2023-11-18T15:03:00.546Z,78.67
2023-11-18T15:05:29.061Z,78.75
2023-11-18T15:07:59.255Z,78.79
2023-11-18T15:10:27.290Z,79.04
2023-11-18T15:12:58.598Z,78.80
2023-11-18T15:15:33.476Z,78.89
2023-11-18T15:18:06.153Z,78.92
2023-11-18T15:20:36.675Z,79.14
2023-11-18T15:23:04.186Z,79.48
2023-11-18T15:25:31.088Z,79.19
2023-11-18T15:28:01.877Z,79.42
2023-11-18T15:30:28.955Z,79.66
2023-11-18T15:32:56.309Z,79.71
2023-11-18T15:35:23.878Z,79.58
2023-11-18T15:37:52.487Z,79.91
2023-11-18T15:40:27.003Z,80.00
2023-11-18T15:42:55.042Z,80.18
2023-11-18T15:45:26.042Z,80.33
2023-11-18T15:47:53.621Z,80.14
2023-11-18T15:50:22.187Z,80.22
2023-11-18T15:52:50.434Z,80.29
2023-11-18T15:55:18.638Z,80.48
2023-11-18T15:57:53.975Z,80.48
2023-11-18T16:00:26.308Z,80.52
2023-11-18T16:03:03.023Z,80.51
2023-11-18T16:05:36.106Z,80.82
2023-11-18T16:08:09.061Z,81.08
2023-11-18T16:10:46.744Z,81.04
2023-11-18T16:13:17.278Z,80.92
2023-11-18T16:15:44.227Z,81.31
2023-11-18T16:18:11.328Z,81.53
2023-11-18T16:20:38.614Z,81.45
2023-11-18T16:23:06.342Z,81.45
2023-11-18T16:25:36.671Z,81.53
2023-11-18T16:28:04.797Z,81.56
2023-11-18T16:30:34.866Z,81.66
2023-11-18T16:33:09.200Z,81.87
2023-11-18T16:35:37.289Z,81.90
2023-11-18T16:38:04.386Z,81.90
2023-11-18T16:40:32.747Z,81.88
2023-11-18T16:43:01.372Z,82.16
2023-11-18T16:45:28.649Z,82.36
2023-11-18T16:47:56.219Z,82.20
2023-11-18T16:50:25.155Z,82.18
2023-11-18T16:52:53.507Z,82.33
2023-11-18T16:55:22.916Z,82.35
2023-11-18T16:57:53.722Z,82.56
2023-11-18T17:00:25.663Z,82.65
2023-11-18T17:02:59.626Z,82.66
2023-11-18T17:05:32.750Z,82.45
2023-11-18T17:08:01.620Z,82.64
2023-11-18T17:10:29.332Z,83.08
2023-11-18T17:12:58.349Z,82.92
2023-11-18T17:15:28.007Z,82.74
2023-11-18T17:18:05.394Z,83.06
2023-11-18T17:20:32.534Z,83.06
2023-11-18T17:23:01.633Z,83.20
2023-11-18T17:25:28.574Z,83.20
2023-11-18T17:27:58.030Z,83.26
2023-11-18T17:30:25.538Z,83.35
2023-11-18T17:32:55.455Z,83.18
2023-11-18T17:35:23.140Z,83.32
2023-11-18T17:37:50.619Z,83.42
2023-11-18T17:40:17.755Z,83.06
2023-11-18T17:42:49.187Z,83.07
2023-11-18T17:45:18.790Z,83.31
2023-11-18T17:47:46.198Z,83.49
2023-11-18T17:50:15.752Z,83.27
2023-11-18T17:52:47.995Z,83.36
2023-11-18T17:55:16.507Z,83.52
2023-11-18T17:57:46.777Z,83.39
2023-11-18T18:00:20.613Z,83.40
2023-11-18T18:02:48.180Z,83.44
2023-11-18T18:05:15.413Z,83.58
2023-11-18T18:07:42.825Z,83.59
2023-11-18T18:10:14.537Z,83.54
2023-11-18T18:12:48.199Z,83.55
2023-11-18T18:15:15.398Z,83.72
2023-11-18T18:17:42.466Z,83.82
2023-11-18T18:20:14.648Z,83.86
2023-11-18T18:22:44.203Z,83.76
2023-11-18T18:25:11.307Z,83.67
2023-11-18T18:27:39.942Z,83.96
2023-11-18T18:30:07.549Z,83.70
2023-11-18T18:32:38.070Z,83.65
2023-11-18T18:35:07.202Z,83.72
2023-11-18T18:37:44.378Z,83.71
2023-11-18T18:40:13.210Z,83.45
2023-11-18T18:42:44.380Z,83.70
2023-11-18T18:45:12.847Z,83.43
2023-11-18T18:47:42.895Z,83.26
2023-11-18T18:50:10.211Z,83.48
2023-11-18T18:52:37.423Z,83.24
2023-11-18T18:55:04.931Z,83.27
2023-11-18T18:57:32.771Z,83.26
2023-11-18T18:59:59.672Z,83.08
2023-11-18T19:02:27.343Z,83.22
2023-11-18T19:04:54.609Z,83.05
2023-11-18T19:07:22.528Z,82.87
2023-11-18T19:09:50.347Z,82.72
2023-11-18T19:12:20.268Z,82.72
2023-11-18T19:14:47.427Z,82.84
2023-11-18T19:17:15.139Z,82.75
2023-11-18T19:19:45.142Z,82.85
2023-11-18T19:22:12.015Z,82.58
2023-11-18T19:24:40.005Z,82.44
2023-11-18T19:27:15.028Z,82.69
2023-11-18T19:29:45.059Z,82.26
2023-11-18T19:32:12.358Z,82.35
2023-11-18T19:34:42.098Z,82.15
2023-11-18T19:37:11.252Z,82.21
2023-11-18T19:39:41.611Z,82.51
2023-11-18T19:42:08.978Z,82.07
2023-11-18T19:44:35.944Z,82.22
2023-11-18T19:47:02.889Z,81.98
2023-11-18T19:49:32.960Z,82.18
2023-11-18T19:52:03.265Z,82.17
2023-11-18T19:54:30.256Z,82.01
2023-11-18T19:56:57.155Z,82.15
2023-11-18T19:59:23.957Z,82.10
2023-11-18T20:01:56.257Z,82.18
2023-11-18T20:04:23.552Z,82.04
2023-11-18T20:06:50.616Z,82.07
2023-11-18T20:09:18.484Z,81.94
2023-11-18T20:11:54.149Z,81.91
2023-11-18T20:14:24.889Z,81.83
2023-11-18T20:16:52.246Z,81.67
2023-11-18T20:19:24.276Z,81.50
2023-11-18T20:21:51.272Z,81.43
2023-11-18T20:24:18.417Z,81.50
2023-11-18T20:26:45.360Z,81.45
2023-11-18T20:29:14.229Z,81.64
2023-11-18T20:31:41.227Z,80.97
2023-11-18T20:34:12.685Z,81.08
2023-11-18T20:36:44.950Z,81.08
2023-11-18T20:39:19.210Z,81.02
2023-11-18T20:41:48.500Z,80.81
2023-11-18T20:44:15.845Z,80.58
2023-11-18T20:46:42.874Z,80.82
2023-11-18T20:49:09.801Z,80.70
2023-11-18T20:51:37.407Z,80.55
2023-11-18T20:54:06.093Z,80.51
2023-11-18T20:56:35.673Z,80.75
2023-11-18T20:59:02.813Z,80.62
2023-11-18T21:01:30.557Z,80.49
2023-11-18T21:03:58.715Z,80.60
2023-11-18T21:06:26.048Z,80.32
2023-11-18T21:08:53.029Z,80.56
2023-11-18T21:11:22.449Z,80.60
2023-11-18T21:13:49.887Z,80.44
2023-11-18T21:16:19.797Z,80.10
2023-11-18T21:18:46.817Z,80.57
2023-11-18T21:21:21.051Z,80.21
2023-11-18T21:23:49.323Z,80.46
2023-11-18T21:26:16.402Z,80.66
2023-11-18T21:28:43.441Z,80.73
2023-11-18T21:31:10.299Z,80.50
2023-11-18T21:33:38.888Z,80.53
2023-11-18T21:36:06.290Z,80.24
2023-11-18T21:38:36.368Z,80.53
2023-11-18T21:41:03.611Z,80.16
2023-11-18T21:43:34.102Z,80.48
2023-11-18T21:46:01.209Z,80.41
2023-11-18T21:48:30.374Z,80.17
2023-11-18T21:51:00.267Z,80.25
2023-11-18T21:53:30.230Z,80.36
2023-11-18T21:56:01.425Z,80.12
2023-11-18T21:58:28.534Z,80.21
2023-11-18T22:01:02.800Z,80.45
2023-11-18T22:03:30.488Z,80.45
2023-11-18T22:05:57.404Z,80.13
2023-11-18T22:08:24.350Z,80.11
2023-11-18T22:10:52.011Z,79.97
2023-11-18T22:13:18.977Z,80.20
2023-11-18T22:15:46.073Z,79.91
2023-11-18T22:18:13.437Z,80.23
2023-11-18T22:20:41.024Z,79.93
2023-11-18T22:23:08.020Z,80.00
2023-11-18T22:25:34.993Z,79.67
2023-11-18T22:28:06.185Z,79.86
2023-11-18T22:30:33.850Z,79.63
2023-11-18T22:33:01.529Z,79.69
2023-11-18T22:35:28.926Z,79.59
2023-11-18T22:37:57.919Z,79.33
2023-11-18T22:40:27.495Z,79.47
2023-11-18T22:42:54.714Z,79.15
2023-11-18T22:45:21.911Z,79.34
2023-11-18T22:47:52.578Z,79.33
2023-11-18T22:50:25.208Z,79.30
2023-11-18T22:52:54.754Z,79.21
2023-11-18T22:55:23.462Z,79.25
2023-11-18T22:57:50.775Z,79.23
2023-11-18T23:00:33.426Z,79.15
2023-11-18T23:03:01.242Z,79.10
2023-11-18T23:05:28.312Z,79.04
2023-11-18T23:07:58.179Z,79.32
2023-11-18T23:10:28.062Z,79.18
2023-11-18T23:12:57.441Z,79.30
2023-11-18T23:15:25.979Z,79.15
2023-11-18T23:17:53.499Z,79.34
2023-11-18T23:20:22.772Z,79.37
2023-11-18T23:22:54.928Z,79.64
2023-11-18T23:25:24.254Z,79.58
2023-11-18T23:28:00.984Z,79.67
2023-11-18T23:30:28.751Z,79.77
2023-11-18T23:32:55.800Z,80.01
2023-11-18T23:35:22.972Z,80.29
2023-11-18T23:37:50.395Z,80.37
2023-11-18T23:40:20.585Z,80.57
2023-11-18T23:42:49.428Z,80.50
2023-11-18T23:45:22.243Z,80.96
2023-11-18T23:47:52.517Z,80.91
2023-11-18T23:50:21.087Z,81.19
2023-11-18T23:52:48.268Z,81.01
2023-11-18T23:55:17.998Z,81.46
2023-11-18T23:57:45.259Z,81.42
